Time;durP1;ratioP1;P1;durP2;ratioP2;P2;SDS_P1;SDS_P2;PMS_P1;PMS_P2;Temp;Humidity;BMP_temperature;BMP_pressure;BME280_temperature;BME280_humidity;BME280_pressure;Samples;Min_cycle;Max_cycle;Signal;HPM_P1;HPM_P2
2023/05/01 00:01:18;;;;;;;9.73;5.45;;;;;;;1.99;55.81;100212.59;1721522;82;21103;-65
2023/05/01 00:03:44;;;;;;;10.95;5.42;;;;;;;1.97;55.91;100205.30;1725688;82;21476;-64
2023/05/01 00:06:10;;;;;;;7.75;4.80;;;;;;;1.95;55.97;100209.59;1713179;82;20984;-64
2023/05/01 00:08:37;;;;;;;10.72;5.37;;;;;;;1.94;55.99;100204.47;1714426;82;21017;-64
2023/05/01 00:11:04;;;;;;;11.50;5.45;;;;;;;1.94;56.21;100209.19;1720531;82;21091;-65
2023/05/01 00:13:32;;;;;;;13.78;5.80;;;;;;;1.90;56.10;100204.89;1719161;82;20989;-64
2023/05/01 00:15:58;;;;;;;13.03;6.45;;;;;;;1.93;56.23;100208.77;1713995;82;21441;-64
2023/05/01 00:18:25;;;;;;;11.68;6.53;;;;;;;1.93;56.50;100211.75;1717776;82;21558;-65
2023/05/01 00:20:51;;;;;;;12.00;6.42;;;;;;;1.87;56.88;100214.36;1718093;82;20997;-64
2023/05/01 00:23:17;;;;;;;12.68;6.20;;;;;;;1.76;56.40;100211.81;1717014;82;21075;-65
2023/05/01 00:25:43;;;;;;;11.80;5.92;;;;;;;1.69;56.38;100208.86;1721293;82;20996;-65
2023/05/01 00:28:10;;;;;;;11.33;6.17;;;;;;;1.63;56.38;100208.88;1716340;82;21036;-65
2023/05/01 00:30:37;;;;;;;9.73;5.45;;;;;;;1.62;56.55;100207.15;1718660;82;21028;-64
2023/05/01 00:33:03;;;;;;;12.40;5.90;;;;;;;1.58;56.53;100205.46;1720298;82;21506;-65
2023/05/01 00:35:29;;;;;;;13.00;6.75;;;;;;;1.54;56.79;100208.45;1721640;82;21044;-64
2023/05/01 00:37:56;;;;;;;13.75;6.87;;;;;;;1.54;56.76;100202.90;1720500;82;21095;-65
2023/05/01 00:40:22;;;;;;;14.38;6.12;;;;;;;1.56;56.93;100207.59;1717269;82;21032;-64
2023/05/01 00:42:48;;;;;;;9.83;5.67;;;;;;;1.58;56.81;100204.17;1720030;82;20987;-65
2023/05/01 00:45:15;;;;;;;16.65;6.25;;;;;;;1.56;56.88;100202.44;1721486;82;20961;-64
2023/05/01 00:47:41;;;;;;;12.93;5.37;;;;;;;1.54;57.07;100200.33;1719594;82;21511;-64
2023/05/01 00:50:08;;;;;;;13.45;6.08;;;;;;;1.48;57.41;100206.75;1716358;82;21137;-64
2023/05/01 00:52:35;;;;;;;11.10;5.62;;;;;;;1.44;57.43;100207.63;1718256;82;21047;-65
2023/05/01 00:55:04;;;;;;;11.95;5.55;;;;;;;1.38;57.65;100207.66;1728647;82;21005;-65
2023/05/01 00:57:31;;;;;;;11.43;5.53;;;;;;;1.32;57.50;100205.09;1717310;82;21083;-64
2023/05/01 01:02:46;;;;;;;12.55;6.33;;;;;;;1.36;57.82;100214.50;1695656;78;21715;-70
2023/05/01 01:05:13;;;;;;;9.15;5.12;;;;;;;1.40;57.98;100211.09;1671524;84;21033;-70
2023/05/01 01:07:43;;;;;;;10.78;4.97;;;;;;;1.39;57.99;100209.35;1680424;82;21104;-69
2023/05/01 01:10:19;;;;;;;11.40;4.90;;;;;;;1.37;58.06;100207.64;1679878;82;21103;-70
2023/05/01 01:13:04;;;;;;;11.90;4.85;;;;;;;1.39;58.07;100206.78;1676187;84;21119;-69
2023/05/01 01:15:34;;;;;;;9.30;4.83;;;;;;;1.44;58.06;100203.77;1672907;84;21029;-69
2023/05/01 01:18:16;;;;;;;10.45;4.62;;;;;;;1.45;58.00;100204.19;1678003;83;21618;-69
2023/05/01 01:20:52;;;;;;;10.93;4.60;;;;;;;1.49;58.07;100202.48;1669319;83;21085;-69
2023/05/01 01:23:31;;;;;;;9.73;4.45;;;;;;;1.54;58.11;100200.73;1675041;84;21061;-69
2023/05/01 01:26:26;;;;;;;11.75;4.95;;;;;;;1.54;58.25;100204.19;1673651;84;20987;-69
2023/05/01 01:29:24;;;;;;;9.88;4.37;;;;;;;1.56;58.28;100205.02;1676222;84;21025;-70
2023/05/01 01:31:57;;;;;;;11.25;4.95;;;;;;;1.58;58.30;100197.73;1676858;83;21089;-69
2023/05/01 01:34:35;;;;;;;10.63;4.25;;;;;;;1.57;58.34;100208.47;1677621;83;21038;-70
2023/05/01 01:37:08;;;;;;;10.53;4.70;;;;;;;1.54;58.30;100201.61;1676216;84;20986;-69
2023/05/01 01:39:41;;;;;;;8.85;4.75;;;;;;;1.50;58.43;100197.31;1677800;84;21006;-69
2023/05/01 01:42:10;;;;;;;11.45;5.00;;;;;;;1.48;58.57;100201.60;1672979;82;21760;-70
2023/05/01 01:44:43;;;;;;;11.25;4.62;;;;;;;1.43;58.89;100204.64;1673298;82;21068;-69
2023/05/01 01:47:14;;;;;;;10.68;4.87;;;;;;;1.34;59.05;100196.92;1674938;84;21571;-69
2023/05/01 01:49:44;;;;;;;8.28;4.78;;;;;;;1.25;58.83;100193.09;1669639;84;21531;-69
2023/05/01 01:52:13;;;;;;;12.93;5.83;;;;;;;1.14;58.95;100199.97;1678309;83;21160;-69
2023/05/01 01:54:43;;;;;;;12.60;5.42;;;;;;;1.05;59.54;100199.11;1676206;83;21089;-69
2023/05/01 01:57:12;;;;;;;12.25;5.22;;;;;;;1.03;59.48;100191.82;1673358;84;21115;-69
2023/05/01 01:59:40;;;;;;;8.60;4.87;;;;;;;1.04;59.63;100181.98;1673230;84;21021;-69
2023/05/01 02:02:08;;;;;;;11.93;5.47;;;;;;;1.05;59.51;100183.69;1674588;84;21105;-69
2023/05/01 02:04:36;;;;;;;11.97;5.33;;;;;;;1.06;59.40;100189.24;1666176;84;21030;-69
2023/05/01 02:07:05;;;;;;;11.78;5.03;;;;;;;1.03;59.76;100184.11;1668614;84;21030;-69
2023/05/01 02:09:33;;;;;;;9.35;4.97;;;;;;;1.01;59.63;100178.13;1666056;83;21045;-69
2023/05/01 02:12:04;;;;;;;16.65;5.67;;;;;;;1.01;59.76;100187.53;1650065;84;20978;-70
2023/05/01 02:14:32;;;;;;;10.25;4.95;;;;;;;0.98;59.82;100187.14;1666269;84;21058;-69
2023/05/01 02:16:58;;;;;;;9.40;4.85;;;;;;;1.01;59.80;100181.99;1667609;83;21031;-70
2023/05/01 02:19:26;;;;;;;8.25;4.55;;;;;;;1.04;59.75;100186.28;1673505;83;21756;-69
2023/05/01 02:21:55;;;;;;;10.75;5.17;;;;;;;1.02;59.66;100191.84;1674503;83;21116;-70
2023/05/01 02:24:24;;;;;;;8.60;4.62;;;;;;;1.08;60.02;100192.68;1639183;85;21008;-70
2023/05/01 02:27:00;;;;;;;10.40;5.00;;;;;;;1.17;60.11;100188.39;1668965;84;21074;-70
2023/05/01 02:29:26;;;;;;;8.65;4.67;;;;;;;1.23;60.09;100183.22;1664467;84;21009;-69
2023/05/01 02:31:56;;;;;;;12.63;5.47;;;;;;;1.25;60.04;100188.80;1668067;84;21018;-70
2023/05/01 02:34:22;;;;;;;9.45;4.70;;;;;;;1.27;60.16;100188.80;1671033;83;21109;-70
2023/05/01 02:36:49;;;;;;;13.72;5.55;;;;;;;1.28;60.25;100185.36;1673018;84;20983;-70
2023/05/01 02:39:16;;;;;;;12.13;5.00;;;;;;;1.31;60.30;100172.48;1672467;83;21041;-70
2023/05/01 02:41:45;;;;;;;10.00;5.17;;;;;;;1.33;60.31;100181.06;1672254;84;21576;-70
2023/05/01 02:44:13;;;;;;;8.73;4.65;;;;;;;1.32;60.25;100176.80;1670533;84;21144;-71
2023/05/01 02:46:43;;;;;;;16.27;6.22;;;;;;;1.32;60.09;100171.66;1675223;84;21022;-70
2023/05/01 02:49:12;;;;;;;11.28;4.28;;;;;;;1.30;60.33;100168.22;1669833;84;20970;-71
2023/05/01 02:51:40;;;;;;;12.25;5.42;;;;;;;1.30;60.18;100174.65;1667954;84;21188;-70
2023/05/01 02:54:07;;;;;;;12.05;5.58;;;;;;;1.29;60.35;100175.52;1675615;83;21442;-71
2023/05/01 02:56:36;;;;;;;15.93;5.50;;;;;;;1.27;60.40;100166.50;1676296;84;21066;-70
2023/05/01 02:59:02;;;;;;;8.00;4.90;;;;;;;1.26;60.56;100169.06;1673956;83;22200;-70
2023/05/01 03:01:29;;;;;;;13.48;5.00;;;;;;;1.26;60.70;100169.06;1670834;84;21068;-71
2023/05/01 03:03:57;;;;;;;10.48;4.90;;;;;;;1.26;60.83;100157.09;1674659;83;21017;-71
2023/05/01 03:06:26;;;;;;;8.15;4.03;;;;;;;1.30;60.95;100154.06;1679309;83;21319;-70
2023/05/01 03:08:52;;;;;;;11.33;4.60;;;;;;;1.33;61.05;100150.20;1670479;84;21075;-70
2023/05/01 03:11:20;;;;;;;7.45;5.42;;;;;;;1.36;61.20;100147.61;1669288;83;21073;-70
2023/05/01 03:13:46;;;;;;;10.08;5.40;;;;;;;1.35;61.23;100145.91;1671695;83;21060;-70
2023/05/01 03:16:13;;;;;;;12.53;5.03;;;;;;;1.32;61.55;100148.50;1670866;83;21041;-70
2023/05/01 03:18:39;;;;;;;11.70;4.42;;;;;;;1.30;61.43;100147.63;1675916;83;20986;-70
2023/05/01 03:21:06;;;;;;;10.32;4.90;;;;;;;1.32;61.34;100149.78;1669457;84;21085;-70
2023/05/01 03:23:33;;;;;;;7.97;4.83;;;;;;;1.36;61.30;100152.76;1658025;85;21046;-71
2023/05/01 03:25:59;;;;;;;11.00;4.87;;;;;;;1.41;61.47;100153.61;1655609;85;21252;-70
2023/05/01 03:28:26;;;;;;;9.35;4.65;;;;;;;1.45;61.47;100149.30;1653947;85;21097;-70
2023/05/01 03:30:52;;;;;;;11.18;4.65;;;;;;;1.51;61.61;100155.30;1658463;85;21529;-71
2023/05/01 03:33:19;;;;;;;14.65;4.58;;;;;;;1.58;61.60;100147.55;1656771;85;21618;-71
2023/05/01 03:35:45;;;;;;;8.13;4.33;;;;;;;1.65;61.58;100154.37;1661297;85;20994;-70
2023/05/01 03:38:11;;;;;;;11.25;4.40;;;;;;;1.70;61.53;100156.06;1656162;84;21139;-71
2023/05/01 03:40:38;;;;;;;12.80;4.97;;;;;;;1.75;61.51;100151.75;1655108;85;21035;-70
2023/05/01 03:43:05;;;;;;;9.20;4.47;;;;;;;1.77;61.50;100149.19;1652392;85;21058;-71
2023/05/01 03:45:32;;;;;;;10.78;4.95;;;;;;;1.82;61.70;100144.88;1654822;85;21069;-70
2023/05/01 03:47:59;;;;;;;7.83;4.37;;;;;;;1.91;61.82;100146.55;1656499;85;21039;-71
2023/05/01 03:50:25;;;;;;;8.40;4.65;;;;;;;2.01;61.88;100141.31;1658668;85;21142;-70
2023/05/01 03:52:52;;;;;;;6.05;4.67;;;;;;;2.15;61.94;100140.38;1652187;85;21045;-71
2023/05/01 03:55:18;;;;;;;9.90;4.67;;;;;;;2.22;61.93;100138.20;1654637;85;21085;-71
2023/05/01 03:57:46;;;;;;;14.50;5.22;;;;;;;2.29;61.96;100142.43;1653035;85;21061;-70
2023/05/01 04:00:13;;;;;;;10.70;5.15;;;;;;;2.34;62.02;100140.68;1653760;85;21081;-70
2023/05/01 04:02:39;;;;;;;12.28;5.00;;;;;;;2.38;61.95;100143.67;1651208;85;21052;-70
2023/05/01 04:05:07;;;;;;;9.13;4.72;;;;;;;2.44;62.01;100144.91;1650753;85;21000;-70
2023/05/01 04:07:34;;;;;;;9.08;4.85;;;;;;;2.49;62.22;100141.43;1656350;83;21019;-71
2023/05/01 04:10:00;;;;;;;8.08;4.60;;;;;;;2.52;62.13;100142.70;1658725;83;20947;-71
2023/05/01 04:12:27;;;;;;;8.70;4.85;;;;;;;2.59;62.29;100149.09;1657563;85;20987;-71
2023/05/01 04:14:53;;;;;;;12.70;5.10;;;;;;;2.73;62.32;100139.95;1660065;85;21006;-70
2023/05/01 04:17:20;;;;;;;13.62;4.95;;;;;;;2.84;62.29;100145.02;1648934;83;21134;-70
2023/05/01 04:19:46;;;;;;;11.18;6.12;;;;;;;2.89;62.45;100136.38;1655618;83;21547;-71
2023/05/01 04:22:13;;;;;;;8.98;4.70;;;;;;;2.94;62.69;100135.46;1627115;86;21074;-70
2023/05/01 04:24:39;;;;;;;9.75;5.40;;;;;;;2.91;62.92;100132.06;1654371;83;21057;-70
2023/05/01 04:27:06;;;;;;;10.13;4.45;;;;;;;2.94;62.91;100132.88;1649841;85;20965;-70
2023/05/01 04:29:32;;;;;;;8.00;4.95;;;;;;;3.02;62.78;100133.66;1646843;85;21094;-71
2023/05/01 04:31:59;;;;;;;9.15;4.65;;;;;;;3.13;62.94;100131.83;1649636;85;21118;-70
2023/05/01 04:34:30;;;;;;;11.40;5.93;;;;;;;3.21;62.93;100127.45;1652660;85;21062;-71
2023/05/01 04:36:57;;;;;;;12.15;4.80;;;;;;;3.35;63.11;100133.30;1650048;85;21059;-70
2023/05/01 04:39:24;;;;;;;7.35;4.53;;;;;;;3.51;63.02;100134.44;1652257;83;21007;-68
2023/05/01 04:41:50;;;;;;;13.75;5.70;;;;;;;3.61;63.21;100133.88;1633224;85;21003;-68
2023/05/01 04:44:22;;;;;;;10.90;4.60;;;;;;;3.79;63.36;100139.67;1658772;84;20975;-69
2023/05/01 04:46:49;;;;;;;10.65;5.67;;;;;;;4.00;63.29;100137.66;1628299;85;21086;-69
2023/05/01 04:49:16;;;;;;;7.80;4.65;;;;;;;4.18;63.21;100136.13;1656803;84;21032;-69
2023/05/01 04:51:46;;;;;;;9.83;5.30;;;;;;;4.35;63.25;100133.29;1659615;85;21612;-69
2023/05/01 04:54:12;;;;;;;11.37;5.10;;;;;;;4.49;63.25;100129.20;1657779;85;21007;-69
2023/05/01 04:56:44;;;;;;;9.78;5.08;;;;;;;4.60;63.23;100135.05;1661833;83;21339;-69
2023/05/01 04:59:11;;;;;;;7.40;4.85;;;;;;;4.68;63.44;100128.02;1656191;83;21039;-69
2023/05/01 05:01:37;;;;;;;10.43;5.25;;;;;;;4.76;63.27;100137.38;1658172;83;21007;-70
2023/05/01 05:04:04;;;;;;;9.80;4.80;;;;;;;4.82;63.60;100142.47;1665023;83;21501;-69
2023/05/01 05:06:31;;;;;;;10.45;5.10;;;;;;;4.90;63.60;100141.87;1668641;84;20963;-70
2023/05/01 05:08:59;;;;;;;12.65;4.62;;;;;;;5.07;63.66;100150.22;1666006;83;21041;-70
2023/05/01 05:11:25;;;;;;;;;;;;;;;5.30;63.78;100142.46;1672543;84;20990;-69
2023/05/01 05:13:52;;;;;;;9.23;4.15;;;;;;;5.52;63.91;100146.34;1670713;83;20263;-69
2023/05/01 05:16:18;;;;;;;7.12;4.22;;;;;;;5.72;63.67;100150.27;1670603;83;21509;-70
2023/05/01 05:18:45;;;;;;;8.98;4.92;;;;;;;5.86;63.62;100148.24;1669695;83;21576;-70
2023/05/01 05:21:12;;;;;;;13.00;5.43;;;;;;;6.07;63.79;100147.39;1669445;84;21006;-70
2023/05/01 05:23:38;;;;;;;9.65;4.90;;;;;;;6.28;63.95;100145.63;1672310;82;21795;-69
2023/05/01 05:26:05;;;;;;;11.57;5.93;;;;;;;6.44;63.77;100150.88;1666704;83;21053;-70
2023/05/01 05:28:32;;;;;;;11.55;5.78;;;;;;;6.59;63.80;100142.31;1671276;84;21026;-70
2023/05/01 05:31:01;;;;;;;13.18;4.78;;;;;;;6.71;63.79;100144.59;1669743;84;21056;-69
2023/05/01 05:33:28;;;;;;;9.85;5.45;;;;;;;6.81;63.72;100143.48;1667318;83;21049;-70
2023/05/01 05:35:57;;;;;;;10.63;4.83;;;;;;;6.89;63.90;100141.55;1670583;83;20959;-69
2023/05/01 05:38:23;;;;;;;13.75;5.30;;;;;;;7.00;63.71;100137.81;1668638;83;21014;-70
2023/05/01 05:40:50;;;;;;;9.50;4.80;;;;;;;7.14;63.63;100140.89;1674287;83;21642;-69
2023/05/01 05:43:16;;;;;;;10.68;4.87;;;;;;;7.29;63.53;100143.09;1667456;83;21116;-70
2023/05/01 05:45:43;;;;;;;11.80;4.83;;;;;;;7.44;63.67;100143.56;1669093;83;21034;-70
2023/05/01 05:48:10;;;;;;;7.30;3.90;;;;;;;7.62;63.54;100137.88;1666199;83;21050;-69
2023/05/01 05:50:36;;;;;;;11.08;4.12;;;;;;;7.80;63.42;100136.02;1664165;83;21041;-69
2023/05/01 05:53:06;;;;;;;10.23;4.00;;;;;;;7.98;63.34;100137.66;1665391;84;21075;-68
2023/05/01 05:55:32;;;;;;;8.25;3.80;;;;;;;8.16;63.32;100139.72;1662766;83;21137;-70
2023/05/01 05:57:59;;;;;;;9.43;4.12;;;;;;;8.36;63.09;100140.86;1661332;84;21065;-71
2023/05/01 06:00:29;;;;;;;7.17;4.30;;;;;;;8.53;62.98;100138.59;1661469;84;21108;-71
2023/05/01 06:03:01;;;;;;;9.10;3.47;;;;;;;8.76;62.97;100133.93;1661847;84;21600;-71
2023/05/01 06:05:25;;;;;;;6.20;3.42;;;;;;;8.94;62.87;100131.19;1669462;84;21561;-71
2023/05/01 06:07:53;;;;;;;11.30;3.33;;;;;;;9.17;62.38;100132.98;1670594;84;21296;-70
2023/05/01 06:10:20;;;;;;;6.42;2.85;;;;;;;9.36;62.81;100135.80;1673612;84;21006;-70
2023/05/01 06:12:49;;;;;;;7.67;3.20;;;;;;;9.59;62.48;100135.81;1670231;84;21045;-70
2023/05/01 06:15:18;;;;;;;4.25;2.77;;;;;;;9.81;62.58;100133.73;1670297;84;21041;-70
2023/05/01 06:17:45;;;;;;;5.25;2.90;;;;;;;10.04;62.30;100133.69;1671047;83;21040;-70
2023/05/01 06:20:13;;;;;;;6.30;2.45;;;;;;;10.22;62.19;100128.23;1675374;84;21045;-70
2023/05/01 06:22:40;;;;;;;7.45;3.02;;;;;;;10.37;61.45;100134.63;1673776;84;21086;-69
2023/05/01 06:25:25;;;;;;;6.55;2.42;;;;;;;10.51;61.46;100129.70;1669923;84;21059;-69
2023/05/01 06:27:52;;;;;;;5.95;2.77;;;;;;;10.68;61.27;100139.92;1671400;83;21025;-71
2023/05/01 06:30:20;;;;;;;6.30;2.67;;;;;;;10.86;60.81;100133.91;1671122;83;21064;-72
2023/05/01 06:32:47;;;;;;;7.25;2.45;;;;;;;11.05;60.79;100134.45;1642544;85;21554;-68
2023/05/01 06:35:14;;;;;;;6.60;2.20;;;;;;;11.27;60.91;100133.92;1671279;84;21068;-73
2023/05/01 06:37:40;;;;;;;;;;;;;;;11.38;59.33;100133.00;1674640;84;21020;-70
2023/05/01 06:40:10;;;;;;;5.20;2.10;;;;;;;11.46;59.04;100129.20;1672660;83;20101;-64
2023/05/01 06:42:38;;;;;;;4.80;2.20;;;;;;;11.67;59.96;100125.61;1671305;84;21028;-66
2023/05/01 06:45:07;;;;;;;3.12;1.80;;;;;;;11.95;59.89;100129.61;1670858;84;21041;-67
2023/05/01 06:47:34;;;;;;;5.10;2.12;;;;;;;12.30;59.98;100126.19;1670988;84;21070;-67
2023/05/01 06:50:01;;;;;;;6.97;2.62;;;;;;;12.72;59.45;100122.40;1672285;84;21050;-71
2023/05/01 06:52:38;;;;;;;5.90;2.50;;;;;;;13.09;59.39;100120.53;1671454;84;21149;-67
2023/05/01 06:55:05;;;;;;;6.30;2.08;;;;;;;13.36;59.21;100120.05;1671050;84;21025;-66
2023/05/01 06:57:32;;;;;;;5.42;2.52;;;;;;;13.83;58.65;100109.64;1671588;84;21136;-64
2023/05/01 06:59:58;;;;;;;7.87;2.40;;;;;;;14.21;57.79;100113.25;1669980;84;21160;-66
2023/05/01 07:02:25;;;;;;;5.60;2.30;;;;;;;14.73;58.60;100105.50;1670987;83;21519;-65
2023/05/01 07:04:53;;;;;;;7.70;2.67;;;;;;;15.24;57.68;100102.52;1663734;84;21087;-68
2023/05/01 07:07:19;;;;;;;7.12;2.50;;;;;;;15.80;57.45;100099.05;1660729;84;21615;-68
2023/05/01 07:09:46;;;;;;;7.67;3.42;;;;;;;16.41;57.94;100098.67;1660042;84;21279;-66
2023/05/01 07:12:12;;;;;;;5.75;1.98;;;;;;;17.19;55.93;100095.61;1660218;84;21006;-67
2023/05/01 07:14:42;;;;;;;5.20;2.67;;;;;;;17.76;56.30;100089.50;1648785;85;21022;-70
2023/05/01 07:17:08;;;;;;;6.80;2.10;;;;;;;18.29;54.60;100082.16;1648701;85;21118;-67
2023/05/01 07:19:35;;;;;;;5.85;2.08;;;;;;;18.99;55.16;100076.89;1646288;85;21512;-67
2023/05/01 07:22:03;;;;;;;7.20;2.52;;;;;;;19.89;55.69;100076.91;1646983;85;21660;-67
2023/05/01 07:24:29;;;;;;;6.28;2.25;;;;;;;20.74;54.62;100076.62;1650544;85;21097;-67
2023/05/01 07:26:56;;;;;;;9.40;2.40;;;;;;;21.62;54.52;100078.80;1645747;85;21123;-68
2023/05/01 07:29:23;;;;;;;6.55;2.75;;;;;;;22.72;52.74;100071.17;1649875;85;21717;-67
2023/05/01 07:31:49;;;;;;;5.40;2.45;;;;;;;23.60;52.95;100070.43;1617235;87;21027;-67
2023/05/01 07:34:17;;;;;;;6.05;2.12;;;;;;;24.17;50.21;100067.11;1649381;85;21058;-67
2023/05/01 07:36:43;;;;;;;4.30;2.35;;;;;;;24.79;48.00;100062.66;1650999;84;20983;-67
2023/05/01 07:39:09;;;;;;;6.20;2.50;;;;;;;25.13;44.26;100066.38;1655970;85;21052;-67
2023/05/01 07:41:38;;;;;;;8.53;2.60;;;;;;;25.16;48.05;100064.25;1655253;84;21648;-68
2023/05/01 07:44:05;;;;;;;5.33;2.35;;;;;;;26.04;47.93;100061.27;1652347;85;20962;-68
2023/05/01 07:46:32;;;;;;;4.78;2.50;;;;;;;26.86;47.22;100059.14;1626364;85;21382;-67
2023/05/01 07:48:59;;;;;;;4.62;2.10;;;;;;;27.36;47.08;100054.89;1653904;83;21458;-68
2023/05/01 07:51:25;;;;;;;5.28;2.33;;;;;;;27.69;46.16;100054.73;1656556;83;21604;-68
2023/05/01 07:53:52;;;;;;;5.45;2.65;;;;;;;28.01;45.62;100044.88;1654179;85;21600;-68
2023/05/01 07:56:32;;;;;;;5.47;2.90;;;;;;;28.60;44.97;100048.31;1651950;85;21482;-68
2023/05/01 07:59:03;;;;;;;3.80;2.35;;;;;;;29.29;43.82;100044.09;1659922;85;21705;-68
2023/05/01 08:01:33;;;;;;;5.40;2.35;;;;;;;29.87;43.25;100045.05;1659631;84;21549;-66
2023/05/01 08:04:01;;;;;;;8.28;2.72;;;;;;;30.48;42.71;100045.47;1668166;84;21030;-65
2023/05/01 08:06:30;;;;;;;10.05;2.80;;;;;;;31.50;42.02;100036.52;1666104;84;21081;-66
2023/05/01 08:08:57;;;;;;;4.58;2.37;;;;;;;32.24;39.73;100036.55;1672180;84;22243;-66
2023/05/01 08:11:25;;;;;;;9.68;2.60;;;;;;;32.16;39.60;100032.70;1673544;84;21034;-66
2023/05/01 08:13:52;;;;;;;5.92;2.20;;;;;;;32.42;38.35;100041.33;1672040;84;20931;-66
2023/05/01 08:16:18;;;;;;;4.92;2.40;;;;;;;32.52;38.22;100038.27;1670362;84;21036;-66
2023/05/01 08:18:45;;;;;;;7.50;2.42;;;;;;;32.68;37.58;100033.75;1666771;83;21026;-66
2023/05/01 08:21:11;;;;;;;5.53;2.47;;;;;;;34.35;36.43;100028.55;1656251;84;21500;-66
2023/05/01 08:23:38;;;;;;;7.45;3.25;;;;;;;34.35;36.43;100028.55;1650876;85;21066;-66
2023/05/01 08:26:04;;;;;;;8.28;2.77;;;;;;;34.69;33.07;100037.25;1658170;85;20952;-66
2023/05/01 08:28:34;;;;;;;8.70;2.60;;;;;;;34.59;32.96;100037.77;1658923;85;21043;-66
2023/05/01 08:31:01;;;;;;;5.95;2.85;;;;;;;34.67;32.42;100037.47;1659615;85;21523;-66
2023/05/01 08:33:27;;;;;;;3.62;2.20;;;;;;;34.69;31.63;100032.66;1654308;85;21090;-66
2023/05/01 08:35:54;;;;;;;6.40;2.60;;;;;;;34.56;30.87;100030.06;1657933;83;21041;-65
2023/05/01 08:38:20;;;;;;;7.20;2.08;;;;;;;35.06;30.71;100029.19;1654510;85;21071;-66
2023/05/01 08:40:51;;;;;;;5.42;2.00;;;;;;;35.84;30.26;100027.91;1654422;85;21532;-66
2023/05/01 08:43:17;;;;;;;5.47;2.35;;;;;;;36.19;29.19;100029.12;1657566;84;21113;-66
2023/05/01 08:45:47;;;;;;;5.85;2.20;;;;;;;36.43;28.75;100029.97;1660278;85;20955;-66
2023/05/01 08:48:17;;;;;;;4.97;2.10;;;;;;;36.71;28.17;100030.13;1656620;85;21028;-66
2023/05/01 08:50:46;;;;;;;6.05;2.27;;;;;;;36.79;27.59;100024.05;1659030;85;20951;-66
2023/05/01 08:53:16;;;;;;;5.45;2.45;;;;;;;36.70;26.90;100024.41;1658951;83;21482;-67
2023/05/01 08:55:46;;;;;;;4.70;2.12;;;;;;;36.55;26.37;100024.03;1655606;83;21070;-66
2023/05/01 08:58:14;;;;;;;6.03;2.80;;;;;;;35.85;25.40;100011.93;1656664;85;21528;-66
2023/05/01 09:00:41;;;;;;;8.43;2.85;;;;;;;35.81;25.49;100020.23;1659282;85;20958;-66
2023/05/01 09:03:10;;;;;;;6.53;2.70;;;;;;;36.16;23.82;100012.75;1660287;85;21051;-66
2023/05/01 09:05:37;;;;;;;7.30;2.33;;;;;;;35.78;24.26;100015.80;1652542;85;21539;-65
2023/05/01 09:08:04;;;;;;;6.28;2.42;;;;;;;36.09;24.20;100001.14;1647726;85;21061;-67
2023/05/01 09:10:32;;;;;;;4.10;2.08;;;;;;;36.84;23.17;100004.58;1647298;84;21025;-65
2023/05/01 09:13:05;;;;;;;10.10;2.65;;;;;;;36.82;21.69;100004.52;1646633;84;22182;-65
2023/05/01 09:15:31;;;;;;;7.35;2.45;;;;;;;36.32;21.61;100013.11;1649288;85;21650;-67
2023/05/01 09:18:00;;;;;;;8.18;2.30;;;;;;;36.25;21.92;100008.62;1644957;84;20969;-66
2023/05/01 09:20:26;;;;;;;15.00;2.70;;;;;;;36.63;21.25;100010.08;1641677;85;21477;-66
2023/05/01 09:22:52;;;;;;;5.30;2.15;;;;;;;36.53;20.50;100004.42;1640627;84;21632;-66
2023/05/01 09:25:18;;;;;;;6.55;2.60;;;;;;;36.24;20.45;100009.69;1643767;85;21011;-66
2023/05/01 09:27:45;;;;;;;12.90;2.50;;;;;;;36.63;20.12;100010.08;1646102;85;21045;-62
2023/05/01 09:30:15;;;;;;;6.15;2.60;;;;;;;36.86;20.56;99998.88;1643512;84;21769;-64
2023/05/01 09:32:41;;;;;;;5.62;2.77;;;;;;;37.65;19.82;99998.39;1635702;85;21060;-66
2023/05/01 09:35:13;;;;;;;6.25;2.45;;;;;;;37.68;17.95;100001.98;1638902;85;21541;-67
2023/05/01 09:37:40;;;;;;;5.58;2.30;;;;;;;36.94;17.50;99995.29;1638439;85;21564;-65
2023/05/01 09:40:12;;;;;;;7.53;2.12;;;;;;;36.96;19.61;99992.31;1635459;84;21100;-65
2023/05/01 09:42:50;;;;;;;5.22;1.87;;;;;;;37.91;19.32;99993.67;1637500;84;20991;-65
2023/05/01 09:45:22;;;;;;;6.87;2.20;;;;;;;39.07;19.23;99984.02;1640125;85;20958;-66
2023/05/01 09:47:48;;;;;;;7.50;2.12;;;;;;;39.02;18.66;99983.98;1640016;85;21092;-65
2023/05/01 09:50:33;;;;;;;5.53;2.17;;;;;;;38.87;15.95;99992.23;1636910;85;21582;-65
2023/05/01 09:53:05;;;;;;;;;;;;;;;38.54;18.13;99983.58;1643241;85;21002;-66
2023/05/01 09:55:33;;;;;;;3.65;1.92;;;;;;;39.20;17.68;99976.82;1613083;87;20234;-66
2023/05/01 09:57:59;;;;;;;8.30;2.05;;;;;;;39.19;17.76;99971.09;1598947;87;20996;-65
2023/05/01 10:00:26;;;;;;;7.12;2.72;;;;;;;39.22;17.38;99975.22;1590492;88;21080;-66
2023/05/01 10:02:53;;;;;;;3.77;1.70;;;;;;;39.30;17.27;99978.31;1627723;86;21759;-66
2023/05/01 10:05:19;;;;;;;6.00;2.20;;;;;;;39.92;17.06;99979.00;1628188;85;21112;-66
2023/05/01 10:08:09;;;;;;;8.20;1.92;;;;;;;39.71;16.63;99970.55;1594747;88;21053;-67
2023/05/01 10:10:28;;;;;;;4.87;2.08;;;;;;;39.70;17.00;99968.91;1606343;86;21049;-66
2023/05/01 10:12:54;;;;;;;8.00;2.00;;;;;;;40.17;16.71;99964.16;1623995;85;21082;-67
2023/05/01 10:15:21;;;;;;;5.25;1.90;;;;;;;40.07;16.53;99959.97;1675557;83;21059;-67
2023/05/01 10:17:51;;;;;;;3.77;1.90;;;;;;;39.73;16.17;99956.09;1671838;84;20978;-65
2023/05/01 10:20:17;;;;;;;3.92;1.75;;;;;;;39.90;16.34;99949.72;1671389;84;20979;-66
2023/05/01 10:22:44;;;;;;;3.80;2.20;;;;;;;40.30;15.44;99947.03;1671584;83;21034;-65
2023/05/01 10:25:12;;;;;;;6.55;2.10;;;;;;;40.69;15.77;99944.27;1675218;83;20978;-65
2023/05/01 10:27:42;;;;;;;6.33;2.02;;;;;;;40.60;15.61;99940.37;1677589;83;21264;-66
2023/05/01 10:30:10;;;;;;;5.72;2.00;;;;;;;40.77;15.64;99931.19;1671596;84;21052;-66
2023/05/01 10:32:38;;;;;;;7.37;2.10;;;;;;;41.24;15.76;99935.77;1676295;84;21089;-65
2023/05/01 10:35:14;;;;;;;6.95;2.33;;;;;;;41.90;14.36;99937.28;1670830;84;20993;-67
2023/05/01 10:37:48;;;;;;;5.17;2.08;;;;;;;41.60;14.51;99931.20;1672451;84;21528;-68
2023/05/01 10:40:41;;;;;;;4.17;2.08;;;;;;;41.17;14.70;99929.70;1672461;84;20962;-65
2023/05/01 10:43:16;;;;;;;3.98;1.82;;;;;;;41.53;14.70;99924.59;1672115;83;21065;-64
2023/05/01 10:45:45;;;;;;;5.08;1.80;;;;;;;41.25;14.69;99915.48;1676646;83;21116;-67
2023/05/01 10:48:14;;;;;;;4.00;1.60;;;;;;;42.14;14.55;99909.27;1678292;83;21547;-68
2023/05/01 10:51:11;;;;;;;3.50;1.77;;;;;;;42.35;14.15;99905.41;1673388;83;21502;-67
2023/05/01 10:53:39;;;;;;;3.87;2.02;;;;;;;41.84;13.11;99908.16;1630657;86;21118;-67
2023/05/01 10:56:09;;;;;;;4.05;2.22;;;;;;;40.97;13.81;99905.24;1656552;84;21129;-66
2023/05/01 10:58:42;;;;;;;3.85;1.75;;;;;;;41.36;13.98;99907.56;1652189;84;21521;-64
2023/05/01 11:01:33;;;;;;;4.33;2.10;;;;;;;41.76;13.33;99908.70;1662330;84;21578;-66
2023/05/01 11:04:06;;;;;;;4.60;2.00;;;;;;;41.64;13.09;99897.20;1659758;85;21532;-65
2023/05/01 11:06:34;;;;;;;3.35;1.95;;;;;;;41.17;12.18;99892.73;1626282;85;21090;-66
2023/05/01 11:09:01;;;;;;;7.75;2.10;;;;;;;40.32;12.71;99890.16;1674889;83;21038;-66
2023/05/01 11:11:31;;;;;;;5.70;1.80;;;;;;;40.25;12.35;99891.22;1657209;85;21037;-66
2023/05/01 11:14:03;;;;;;;4.03;1.60;;;;;;;40.33;12.48;99883.59;1658148;83;21520;-66
2023/05/01 11:16:41;;;;;;;8.18;2.08;;;;;;;40.31;12.79;99880.31;1654167;83;21042;-66
2023/05/01 11:19:10;;;;;;;7.53;1.80;;;;;;;40.70;12.44;99882.99;1656320;84;21058;-65
2023/05/01 11:21:39;;;;;;;3.12;1.85;;;;;;;39.29;11.42;99874.23;1655604;85;21041;-67
2023/05/01 11:24:06;;;;;;;2.83;1.70;;;;;;;37.70;12.18;99873.13;1657651;85;21043;-67
2023/05/01 11:26:39;;;;;;;5.15;2.40;;;;;;;37.30;12.26;99871.34;1633328;86;21060;-66
2023/05/01 11:29:07;;;;;;;4.42;1.57;;;;;;;36.60;12.33;99871.84;1658985;85;21018;-66
2023/05/01 11:31:34;;;;;;;4.03;1.80;;;;;;;36.72;12.46;99860.42;1656883;84;21065;-66
2023/05/01 11:34:00;;;;;;;3.95;1.52;;;;;;;36.52;12.16;99866.73;1659162;85;21064;-63
2023/05/01 11:36:27;;;;;;;4.05;1.52;;;;;;;35.62;12.14;99863.28;1653493;83;20987;-66
2023/05/01 11:38:57;;;;;;;3.90;1.70;;;;;;;35.42;12.36;99855.42;1652998;84;21096;-65